createdAt,value
2019-04-16T08:12:49.837Z,0.00
2019-04-16T08:12:56.948Z,0.00
2019-04-16T08:13:22.828Z,0.00
2019-04-16T08:13:33.375Z,0.00
2019-04-16T08:13:35.823Z,0.00
2019-04-16T08:13:40.815Z,0.00
2019-04-16T08:13:46.794Z,0.00
2019-04-16T08:13:52.796Z,0.00
2019-04-16T08:13:58.812Z,0.00
2019-04-16T08:14:08.916Z,51.23
2019-04-16T08:14:14.609Z,52.89
2019-04-16T08:14:16.805Z,34.02
2019-04-16T08:14:22.765Z,0.00
2019-04-16T08:14:28.792Z,0.00
2019-04-16T08:14:34.807Z,60.81
2019-04-16T08:14:40.754Z,56.41
2019-04-16T08:14:46.767Z,64.13
2019-04-16T08:14:52.770Z,57.68
2019-04-16T08:15:12.533Z,0.00
2019-04-16T08:15:13.754Z,0.00
2019-04-16T08:15:15.254Z,0.00
2019-04-16T08:15:17.643Z,0.00
2019-04-16T08:15:23.626Z,0.00
2019-04-16T08:15:29.635Z,0.00
2019-04-16T08:15:35.625Z,0.00
2019-04-16T08:15:41.608Z,0.00
2019-04-16T08:15:47.624Z,0.00
2019-04-16T08:15:56.535Z,0.00
2019-04-16T08:15:59.606Z,0.00
2019-04-16T08:16:05.631Z,0.00
2019-04-16T08:16:11.585Z,0.00
2019-04-16T08:16:17.610Z,0.00
2019-04-16T08:16:23.565Z,0.00
2019-04-16T08:16:29.585Z,0.00
2019-04-16T08:16:46.692Z,0.00
2019-04-16T08:16:47.773Z,0.00
2019-04-16T08:16:49.438Z,0.00
2019-04-16T08:16:54.436Z,0.00
2019-04-16T08:17:00.425Z,0.00
2019-04-16T08:17:06.430Z,0.00
2019-04-16T08:17:12.457Z,0.00
2019-04-16T08:17:18.435Z,0.00
2019-04-16T08:17:24.409Z,0.00
2019-04-16T08:17:30.428Z,0.00
2019-04-16T08:17:36.409Z,0.00
2019-04-16T08:17:42.396Z,0.00
2019-04-16T08:42:58.160Z,0.00
2019-04-16T08:43:02.972Z,0.00
2019-04-16T08:43:09.188Z,0.00
2019-04-16T08:43:14.963Z,0.00
2019-04-16T08:43:20.951Z,0.00
2019-04-16T08:43:29.651Z,0.00
2019-04-16T08:43:32.936Z,0.00
2019-04-16T08:43:38.931Z,0.00
2019-04-16T08:43:44.954Z,0.00
2019-04-16T08:43:50.955Z,0.00
2019-04-16T08:43:59.727Z,0.00
2019-04-16T08:44:04.573Z,0.00
2019-04-16T08:44:10.334Z,0.00
2019-04-16T08:44:14.931Z,0.00
2019-04-16T08:44:20.934Z,0.00
2019-04-16T08:44:26.925Z,0.00
2019-04-16T08:44:35.597Z,0.00
2019-04-16T08:44:38.884Z,0.00
2019-04-16T08:44:44.870Z,0.00
2019-04-16T08:44:50.885Z,0.00
2019-04-16T08:44:56.872Z,0.00
2019-04-16T08:45:07.570Z,0.00
2019-04-16T08:45:09.863Z,0.00
2019-04-16T08:45:14.850Z,0.00
2019-04-16T08:45:20.960Z,0.00
2019-04-16T08:45:26.829Z,0.00
2019-04-16T08:45:32.840Z,0.00
2019-04-16T08:45:39.883Z,0.00
2019-04-16T08:45:44.908Z,0.00
2019-04-16T08:45:50.829Z,0.00
2019-04-16T08:45:56.832Z,0.00
2019-04-16T08:46:02.808Z,0.00
2019-04-16T08:46:11.259Z,0.00
2019-04-16T08:46:14.792Z,0.00
2019-04-16T08:46:20.790Z,0.00
2019-04-16T08:46:28.287Z,0.00
2019-04-16T08:46:32.762Z,0.00
2019-04-16T08:46:40.080Z,0.00
2019-04-16T08:46:44.740Z,0.00
2019-04-16T08:46:50.739Z,0.00
2019-04-16T08:46:58.611Z,0.00
2019-04-16T08:47:02.996Z,0.00
2019-04-16T08:47:32.915Z,0.00
2019-04-16T08:48:32.889Z,0.00
2019-04-16T08:49:30.256Z,0.00
2019-04-16T08:50:57.882Z,0.00
2019-04-16T08:51:59.753Z,0.00
2019-04-16T08:53:00.711Z,0.00
2019-04-16T08:53:59.650Z,0.00
2019-04-16T08:54:59.619Z,0.00
2019-04-16T08:55:59.540Z,0.00
2019-04-16T08:56:59.521Z,0.00
2019-04-16T08:57:59.442Z,0.00
2019-04-16T09:40:34.999Z,0.00
2019-04-16T09:41:34.973Z,0.00
2019-04-16T09:42:35.137Z,40.96
2019-04-16T09:43:35.004Z,56.02
2019-04-16T09:44:35.617Z,0.00
2019-04-16T09:45:37.141Z,0.00
2019-04-16T09:46:50.563Z,0.00
2019-04-16T09:47:35.783Z,0.00
2019-04-16T09:48:35.563Z,0.00
2019-04-16T09:49:37.600Z,0.00
2019-04-16T09:50:34.760Z,0.00
2019-04-16T09:51:34.784Z,0.00
2019-04-16T09:52:34.719Z,0.00
2019-04-16T09:53:12.656Z,0.00
2019-04-16T09:53:46.462Z,0.00
2019-04-16T10:30:11.999Z,0.00
2019-04-16T10:31:11.993Z,37.74
2019-04-16T10:32:11.973Z,38.32
2019-04-16T10:33:12.664Z,39.01
2019-04-16T10:34:11.926Z,38.91
2019-04-16T10:35:11.941Z,35.98
2019-04-16T10:36:11.923Z,35.78
2019-04-16T10:37:11.927Z,35.68
2019-04-16T10:38:13.645Z,36.17
2019-04-16T10:39:11.950Z,35.68
2019-04-16T10:40:11.920Z,36.86
2019-04-16T10:41:15.552Z,35.39
2019-04-16T10:42:15.540Z,35.39
2019-04-16T10:43:15.880Z,35.68
2019-04-16T10:44:15.878Z,35.59
2019-04-16T10:45:15.762Z,35.68
2019-04-16T10:46:19.615Z,37.15
2019-04-16T10:47:16.663Z,33.05
2019-04-16T10:48:15.496Z,32.85
2019-04-16T10:49:15.475Z,32.75
2019-04-16T10:50:15.495Z,35.78
2019-04-16T10:51:16.209Z,35.78
2019-04-16T10:52:15.443Z,38.52
2019-04-16T10:53:15.444Z,35.59
2019-04-16T10:54:15.429Z,35.78
2019-04-16T10:55:18.548Z,36.27
2019-04-16T10:56:20.655Z,36.96
2019-04-16T10:57:15.844Z,36.37
2019-04-16T10:58:15.382Z,35.88
2019-04-16T10:59:15.347Z,35.68
2019-04-16T11:00:15.358Z,35.68
2019-04-16T11:01:15.591Z,33.05
2019-04-16T11:02:15.343Z,34.90
2019-04-16T11:03:15.324Z,35.78
2019-04-16T11:04:16.323Z,38.23
2019-04-16T11:05:19.307Z,35.39
2019-04-16T11:06:15.358Z,34.12
2019-04-16T11:07:15.325Z,38.32
2019-04-16T11:08:15.261Z,35.29
2019-04-16T11:09:15.232Z,35.39
2019-04-16T11:10:15.289Z,35.20
2019-04-16T11:11:15.742Z,35.39
2019-04-16T11:12:15.250Z,36.17
2019-04-16T11:13:15.711Z,35.29
2019-04-16T11:14:15.222Z,37.64
2019-04-16T11:15:15.594Z,35.20
2019-04-16T11:16:15.612Z,34.80
2019-04-16T11:17:15.413Z,34.80
2019-04-16T11:18:15.245Z,37.54
2019-04-16T11:19:15.131Z,35.00
2019-04-16T11:20:15.400Z,34.80
2019-04-16T11:21:15.160Z,34.51
2019-04-16T11:22:15.157Z,32.07
2019-04-16T11:23:15.931Z,35.59
2019-04-16T11:24:15.879Z,35.00
2019-04-16T11:25:15.209Z,33.24
2019-04-16T11:26:15.221Z,31.68
2019-04-16T11:27:15.188Z,33.44
2019-04-16T11:28:15.097Z,36.37
2019-04-16T11:29:15.292Z,34.90
2019-04-16T11:30:15.262Z,33.73
2019-04-16T11:31:15.135Z,30.99
2019-04-16T11:32:15.017Z,33.53
2019-04-16T11:33:14.974Z,34.51
2019-04-16T11:34:15.229Z,35.98
2019-04-16T11:35:17.319Z,30.70
2019-04-16T11:36:19.636Z,33.24
2019-04-16T11:37:15.959Z,33.24
2019-04-16T11:38:17.309Z,33.14
2019-04-16T11:39:14.951Z,33.53
2019-04-16T11:40:14.943Z,33.24
2019-04-16T11:41:15.067Z,33.24
2019-04-16T11:42:14.878Z,33.44
2019-04-16T11:43:14.933Z,33.63
2019-04-16T11:44:17.177Z,34.51
2019-04-16T11:45:14.898Z,33.14
2019-04-16T11:46:14.890Z,30.89
2019-04-16T11:47:14.957Z,32.75
2019-04-16T11:48:14.875Z,33.63
2019-04-16T11:49:14.816Z,33.73
2019-04-16T11:50:14.815Z,35.98
2019-04-16T11:51:14.814Z,32.85
2019-04-16T11:52:14.835Z,33.83
2019-04-16T11:53:14.793Z,33.73
2019-04-16T11:54:14.755Z,36.17
2019-04-16T11:55:14.749Z,35.49
2019-04-16T11:56:14.788Z,34.51
2019-04-16T11:57:14.816Z,35.00
2019-04-16T11:58:14.749Z,33.53
2019-04-16T11:59:14.719Z,31.87
2019-04-16T12:00:14.722Z,34.02
2019-04-16T12:01:14.714Z,33.83
2019-04-16T12:02:14.768Z,31.58
2019-04-16T12:03:14.949Z,35.59
2019-04-16T12:04:16.434Z,31.58
2019-04-16T12:05:14.630Z,36.27
2019-04-16T12:06:27.445Z,33.92
2019-04-16T12:07:17.425Z,34.22
2019-04-16T12:08:14.607Z,34.02
2019-04-16T12:09:14.873Z,32.07
2019-04-16T12:10:14.601Z,33.73
2019-04-16T12:11:14.592Z,34.12
2019-04-16T12:12:14.929Z,34.41
2019-04-16T12:13:14.825Z,31.97
2019-04-16T12:14:28.642Z,34.32
2019-04-16T12:15:17.359Z,36.66
2019-04-16T12:16:14.612Z,34.51
2019-04-16T12:17:14.543Z,35.29
2019-04-16T12:18:14.526Z,34.22
2019-04-16T12:19:14.691Z,33.14
2019-04-16T12:20:14.516Z,34.41
2019-04-16T12:21:14.513Z,33.92
2019-04-16T12:22:14.466Z,34.41
2019-04-16T12:23:14.689Z,34.80
2019-04-16T12:24:14.704Z,32.85
2019-04-16T12:25:14.477Z,36.17
2019-04-16T12:26:14.636Z,34.71
2019-04-16T12:27:14.472Z,34.80
2019-04-16T12:28:14.415Z,32.65
2019-04-16T12:29:14.553Z,36.86
2019-04-16T12:30:14.589Z,32.65
2019-04-16T12:31:16.635Z,34.51
2019-04-16T12:32:14.561Z,34.61
2019-04-16T12:33:15.067Z,34.71
2019-04-16T12:34:14.346Z,34.80
2019-04-16T12:35:14.988Z,37.05
2019-04-16T12:36:14.719Z,34.61
2019-04-16T12:37:14.614Z,34.61
2019-04-16T12:38:18.176Z,34.51
2019-04-16T12:39:18.793Z,34.61
2019-04-16T12:40:19.365Z,34.61
2019-04-16T12:41:15.280Z,36.37
2019-04-16T12:42:14.279Z,32.95
2019-04-16T12:43:16.022Z,34.22
2019-04-16T12:44:14.792Z,34.51
2019-04-16T12:45:14.705Z,34.41
2019-04-16T12:46:14.397Z,34.32
2019-04-16T12:47:14.944Z,34.12
2019-04-16T12:48:14.742Z,33.73
2019-04-16T12:49:14.343Z,33.44
2019-04-16T12:50:16.750Z,34.22
2019-04-16T12:51:14.398Z,34.32
2019-04-16T12:52:17.205Z,32.85
2019-04-16T12:53:14.265Z,34.41
2019-04-16T12:54:14.447Z,34.32
2019-04-16T12:55:14.264Z,34.02
2019-04-16T12:56:14.150Z,34.02
2019-04-16T12:57:16.499Z,32.07
2019-04-16T12:58:18.882Z,34.41
2019-04-16T12:59:15.212Z,34.02
2019-04-16T13:00:14.109Z,33.92
2019-04-16T13:01:14.091Z,35.68
2019-04-16T13:02:14.308Z,35.98
2019-04-16T13:03:17.749Z,34.02
2019-04-16T13:04:14.031Z,35.88
2019-04-16T13:05:14.121Z,34.32
2019-04-16T13:06:14.392Z,32.56
2019-04-16T13:07:14.039Z,33.83
2019-04-16T13:08:13.986Z,33.73
2019-04-16T13:09:14.507Z,34.41
2019-04-16T13:10:14.522Z,33.63
2019-04-16T13:11:13.999Z,33.83
2019-04-16T13:12:14.229Z,33.44
2019-04-16T13:13:14.058Z,33.83
2019-04-16T13:14:14.174Z,31.97
2019-04-16T13:15:13.946Z,33.73
2019-04-16T13:16:13.913Z,35.00
2019-04-16T13:17:18.692Z,33.53
2019-04-16T13:18:13.920Z,33.63
2019-04-16T13:19:13.966Z,33.83
2019-04-16T13:20:13.936Z,33.44
2019-04-16T13:21:13.889Z,31.97
2019-04-16T13:22:13.949Z,33.34
2019-04-16T13:23:13.952Z,33.34
2019-04-16T13:24:14.038Z,33.44
2019-04-16T13:25:13.823Z,33.14
2019-04-16T13:26:14.011Z,33.05
2019-04-16T13:27:13.811Z,33.24
2019-04-16T13:28:14.049Z,33.24
2019-04-16T13:29:16.826Z,33.05
2019-04-16T13:30:14.282Z,33.14
2019-04-16T13:31:13.789Z,33.14
2019-04-16T13:32:13.948Z,32.95
2019-04-16T13:33:13.768Z,35.20
2019-04-16T13:34:18.340Z,33.34
2019-04-16T13:35:14.758Z,31.48
2019-04-16T13:36:13.704Z,32.95
2019-04-16T13:37:13.706Z,33.05
2019-04-16T13:38:13.720Z,35.00
2019-04-16T13:39:13.722Z,32.75
2019-04-16T13:40:13.684Z,32.85
2019-04-16T13:41:13.670Z,32.65
2019-04-16T13:42:13.662Z,33.24
2019-04-16T13:43:13.640Z,32.65
2019-04-16T13:44:16.919Z,33.05
2019-04-16T13:45:17.594Z,32.65
2019-04-16T13:46:15.124Z,32.65
2019-04-16T13:47:13.635Z,34.41
2019-04-16T13:48:16.552Z,32.85
2019-04-16T13:49:13.599Z,32.65
2019-04-16T13:50:13.803Z,32.46
2019-04-16T13:51:18.462Z,33.63
2019-04-16T13:52:17.030Z,32.46
2019-04-16T13:53:14.605Z,32.46
2019-04-16T13:54:13.557Z,30.60
2019-04-16T13:55:13.525Z,30.50
2019-04-16T13:56:19.076Z,32.56
2019-04-16T13:57:14.265Z,32.07
2019-04-16T13:58:13.523Z,32.17
2019-04-16T13:59:13.505Z,31.97
2019-04-16T14:00:13.473Z,30.21
2019-04-16T14:01:13.467Z,32.26
2019-04-16T14:02:17.750Z,31.77
2019-04-16T14:03:14.452Z,33.73
2019-04-16T14:04:13.455Z,32.17
2019-04-16T14:05:13.440Z,31.97
2019-04-16T14:06:13.483Z,31.77
2019-04-16T14:07:13.410Z,31.87
2019-04-16T14:08:13.404Z,30.01
2019-04-16T14:09:13.381Z,29.72
2019-04-16T14:10:13.377Z,33.83
2019-04-16T14:11:13.388Z,29.82
2019-04-16T14:12:13.359Z,31.77
2019-04-16T14:13:14.291Z,31.38
2019-04-16T14:14:17.388Z,31.48
2019-04-16T14:15:13.328Z,29.43
2019-04-16T14:16:13.673Z,32.95
2019-04-16T14:17:17.730Z,31.29
2019-04-16T14:18:13.461Z,33.24
2019-04-16T14:19:14.162Z,31.29
2019-04-16T14:20:13.925Z,33.05
2019-04-16T14:21:14.480Z,31.09
2019-04-16T14:22:13.482Z,32.36
2019-04-16T14:23:13.718Z,29.82
2019-04-16T14:24:14.023Z,31.09
2019-04-16T14:25:13.284Z,32.56
2019-04-16T14:26:13.317Z,30.89
2019-04-16T14:27:14.462Z,29.72
2019-04-16T14:28:13.181Z,31.97
2019-04-16T14:29:13.169Z,31.19
2019-04-16T14:30:13.181Z,32.65
2019-04-16T14:31:16.276Z,30.41
2019-04-16T14:32:13.488Z,32.75
2019-04-16T14:33:13.200Z,33.92
2019-04-16T14:34:13.183Z,30.11
2019-04-16T14:35:13.109Z,31.58
2019-04-16T14:36:13.109Z,31.48
2019-04-16T14:37:13.111Z,33.34
2019-04-16T14:38:13.081Z,30.89
2019-04-16T14:39:13.089Z,30.80
2019-04-16T14:40:14.329Z,30.31
2019-04-16T14:41:16.152Z,30.41
2019-04-16T14:42:23.053Z,29.14
2019-04-16T14:43:14.942Z,27.86
2019-04-16T14:44:13.774Z,29.43
2019-04-16T14:45:13.695Z,30.80
2019-04-16T14:46:13.002Z,29.53
2019-04-16T14:47:12.981Z,26.79
2019-04-16T14:48:12.984Z,28.94
2019-04-16T14:49:15.248Z,29.04
2019-04-16T14:50:13.966Z,29.14
2019-04-16T14:51:12.965Z,26.20
2019-04-16T14:52:12.921Z,29.53
2019-04-16T14:53:12.921Z,25.91
2019-04-16T14:54:12.904Z,27.67
2019-04-16T14:55:12.946Z,27.96
2019-04-16T14:56:12.926Z,25.71
2019-04-16T14:57:12.905Z,25.13
2019-04-16T14:58:16.038Z,25.13
2019-04-16T14:59:12.918Z,27.18
2019-04-16T15:00:12.930Z,26.98
2019-04-16T15:01:12.858Z,27.08
2019-04-16T15:02:13.064Z,24.93
2019-04-16T15:03:12.869Z,27.18
2019-04-16T15:04:12.826Z,26.40
2019-04-16T15:05:15.764Z,24.15
2019-04-16T15:06:13.403Z,28.26
2019-04-16T15:07:12.802Z,26.01
2019-04-16T15:08:12.775Z,28.45
2019-04-16T15:09:12.755Z,25.91
2019-04-16T15:10:12.767Z,25.71
2019-04-16T15:11:13.517Z,23.95
2019-04-16T15:12:12.895Z,27.57
2019-04-16T15:13:12.935Z,25.42
2019-04-16T15:14:23.428Z,25.03
2019-04-16T15:15:13.607Z,23.27
2019-04-16T15:16:14.302Z,26.98
2019-04-16T15:17:13.399Z,24.83
2019-04-16T15:18:12.729Z,25.03
2019-04-16T15:19:12.970Z,25.03
2019-04-16T15:20:13.156Z,26.79
2019-04-16T15:21:13.079Z,24.54
2019-04-16T15:22:14.527Z,22.59
2019-04-16T15:23:12.748Z,23.86
2019-04-16T15:24:15.929Z,25.71
2019-04-16T15:25:13.740Z,24.15
2019-04-16T15:26:12.784Z,23.95
2019-04-16T15:27:12.618Z,23.86
2019-04-16T15:28:12.599Z,25.91
2019-04-16T15:29:12.539Z,24.25
2019-04-16T15:30:12.531Z,22.49
2019-04-16T15:31:12.520Z,22.68
2019-04-16T15:32:12.575Z,25.13
2019-04-16T15:33:12.549Z,21.71
2019-04-16T15:34:12.495Z,25.62
2019-04-16T15:35:14.873Z,23.47
2019-04-16T15:36:17.715Z,23.66
2019-04-16T15:37:16.394Z,25.03
2019-04-16T15:38:48.462Z,21.31
2019-04-16T15:39:13.106Z,21.90
2019-04-16T15:40:13.263Z,23.17
2019-04-16T15:41:13.374Z,25.13
2019-04-16T15:42:16.352Z,23.37
2019-04-16T15:43:12.586Z,24.93
2019-04-16T15:44:12.789Z,21.90
2019-04-16T15:45:13.625Z,22.49
2019-04-16T15:46:25.510Z,24.93
2019-04-16T15:47:14.841Z,23.17
2019-04-16T15:48:14.846Z,21.71
2019-04-16T15:49:13.373Z,20.92
2019-04-16T15:50:12.371Z,22.98
2019-04-16T15:51:14.882Z,22.78
2019-04-16T15:52:12.471Z,24.15
2019-04-16T15:53:12.582Z,23.27
2019-04-16T15:54:12.286Z,20.83
2019-04-16T15:55:12.316Z,23.07
2019-04-16T15:56:12.253Z,22.78
2019-04-16T15:57:12.271Z,22.68
2019-04-16T15:58:12.229Z,24.54
2019-04-16T15:59:14.128Z,24.83
2019-04-16T16:00:12.348Z,22.19
2019-04-16T16:01:13.547Z,22.59
2019-04-16T16:02:12.307Z,22.68
2019-04-16T16:03:12.415Z,22.19
2019-04-16T16:04:12.395Z,21.31
2019-04-16T16:05:12.698Z,22.78
2019-04-16T16:06:12.969Z,22.49
2019-04-16T16:07:12.225Z,24.64
2019-04-16T16:08:12.127Z,23.76
2019-04-16T16:09:12.507Z,23.27
2019-04-16T16:10:13.789Z,23.66
2019-04-16T16:11:16.384Z,22.29
2019-04-16T16:12:12.261Z,22.10
2019-04-16T16:13:12.173Z,22.10
2019-04-16T16:14:12.097Z,20.24
2019-04-16T16:15:12.422Z,22.29
2019-04-16T16:16:17.426Z,22.19
2019-04-16T16:17:13.108Z,22.29
2019-04-16T16:18:12.024Z,22.00
2019-04-16T16:19:12.243Z,24.15
2019-04-16T16:20:11.992Z,23.17
2019-04-16T16:21:11.979Z,22.10
2019-04-16T16:22:12.234Z,22.19
2019-04-16T16:23:11.984Z,21.80
2019-04-16T16:24:11.959Z,21.80
2019-04-16T16:25:11.985Z,20.34
2019-04-16T16:26:11.930Z,20.14
2019-04-16T16:27:11.972Z,20.04
2019-04-16T16:28:11.941Z,22.10
2019-04-16T16:29:14.117Z,21.90
2019-04-16T16:30:14.523Z,21.71
2019-04-16T16:31:13.011Z,20.04
2019-04-16T16:32:12.494Z,22.29
2019-04-16T16:33:11.936Z,22.78
2019-04-16T16:34:11.973Z,23.66
2019-04-16T16:35:16.720Z,22.00
2019-04-16T16:36:13.237Z,21.71
2019-04-16T16:37:11.950Z,21.61
2019-04-16T16:38:14.055Z,21.80
2019-04-16T16:39:11.783Z,21.61
2019-04-16T16:40:14.789Z,22.10
2019-04-16T16:41:12.105Z,21.61
2019-04-16T16:42:11.976Z,21.51
2019-04-16T16:43:14.156Z,21.61
2019-04-16T16:44:11.798Z,21.61
2019-04-16T16:45:11.761Z,19.65
2019-04-16T16:46:11.760Z,22.00
2019-04-16T16:47:11.735Z,23.07
2019-04-16T16:48:11.674Z,23.47
2019-04-16T16:49:11.709Z,23.37
2019-04-16T16:50:11.718Z,20.63
2019-04-16T16:51:14.849Z,23.47
2019-04-16T16:52:11.937Z,21.31
2019-04-16T16:53:12.006Z,23.27
2019-04-16T16:54:11.859Z,21.31
2019-04-16T16:55:11.750Z,21.31
2019-04-16T16:56:13.594Z,21.51
2019-04-16T16:57:11.608Z,21.31
2019-04-16T16:58:11.581Z,21.61
2019-04-16T16:59:12.091Z,21.51
2019-04-16T17:00:11.711Z,21.31
2019-04-16T17:01:13.910Z,19.36
2019-04-16T17:02:11.656Z,23.27
2019-04-16T17:03:11.552Z,21.22
2019-04-16T17:04:11.572Z,23.07
2019-04-16T17:05:11.863Z,20.44
2019-04-16T17:06:11.572Z,23.07
2019-04-16T17:07:11.563Z,20.63
2019-04-16T17:08:11.650Z,21.22
2019-04-16T17:09:11.813Z,20.44
2019-04-16T17:10:11.787Z,21.12
2019-04-16T17:11:16.440Z,21.02
2019-04-16T17:12:12.502Z,21.22
2019-04-16T17:13:14.650Z,21.02
2019-04-16T17:14:12.422Z,19.56
2019-04-16T17:15:11.510Z,22.39
2019-04-16T17:16:14.415Z,21.12
2019-04-16T17:17:14.757Z,20.92
2019-04-16T17:18:11.363Z,19.65
2019-04-16T17:19:11.351Z,18.87
2019-04-16T17:20:11.336Z,21.02
2019-04-16T17:21:11.375Z,20.92
2019-04-16T17:22:11.319Z,19.46
2019-04-16T17:23:16.419Z,19.16
2019-04-16T17:24:12.289Z,20.73
2019-04-16T17:25:12.235Z,20.83
2019-04-16T17:26:15.470Z,18.87
2019-04-16T17:27:11.287Z,20.83
2019-04-16T17:28:11.257Z,20.92
2019-04-16T17:29:11.261Z,22.68
2019-04-16T17:30:11.231Z,20.53
2019-04-16T17:31:11.216Z,20.92
2019-04-16T17:32:11.218Z,20.14
2019-04-16T17:33:11.189Z,22.10
2019-04-16T17:34:11.194Z,18.58
2019-04-16T17:35:15.568Z,21.71
2019-04-16T17:36:11.190Z,19.85
2019-04-16T17:37:11.159Z,20.53
2019-04-16T17:38:11.137Z,18.77
2019-04-16T17:39:11.130Z,20.73
2019-04-16T17:40:16.117Z,18.77
2019-04-16T17:41:12.137Z,20.63
2019-04-16T17:42:11.113Z,19.85
2019-04-16T17:43:13.815Z,20.53
2019-04-16T17:44:11.106Z,20.53
2019-04-16T17:45:11.068Z,22.29
2019-04-16T17:46:11.078Z,20.44
2019-04-16T17:47:11.042Z,21.61
2019-04-16T17:48:11.073Z,20.73
2019-04-16T17:49:11.055Z,21.90
2019-04-16T17:50:11.035Z,22.19
2019-04-16T17:51:11.004Z,20.83
2019-04-16T17:52:10.989Z,20.04
2019-04-16T17:53:11.152Z,20.14
2019-04-16T17:54:10.982Z,18.77
2019-04-16T17:55:10.948Z,20.34
2019-04-16T17:56:10.938Z,18.58
2019-04-16T17:57:10.932Z,22.10
2019-04-16T17:58:10.939Z,20.04
2019-04-16T17:59:10.926Z,20.92
2019-04-16T18:00:10.910Z,19.65
2019-04-16T18:01:11.130Z,22.10
2019-04-16T18:02:10.921Z,19.95
2019-04-16T18:03:10.888Z,20.24
2019-04-16T18:04:11.633Z,20.14
2019-04-16T18:05:10.838Z,20.14
2019-04-16T18:06:10.849Z,20.24
2019-04-16T18:07:10.825Z,18.09
2019-04-16T18:08:10.834Z,20.44
2019-04-16T18:09:10.830Z,18.38
2019-04-16T18:10:10.789Z,20.24
2019-04-16T18:11:10.911Z,19.95
2019-04-16T18:12:10.770Z,19.95
2019-04-16T18:13:10.772Z,21.80
2019-04-16T18:14:11.503Z,18.97
2019-04-16T18:15:16.238Z,21.61
2019-04-16T18:16:11.173Z,20.63
2019-04-16T18:17:10.753Z,19.75
2019-04-16T18:18:15.515Z,19.95
2019-04-16T18:19:11.848Z,20.92
2019-04-16T18:20:10.688Z,20.14
2019-04-16T18:21:10.726Z,19.75
2019-04-16T18:22:10.682Z,19.56
2019-04-16T18:23:10.688Z,19.85
2019-04-16T18:24:10.682Z,19.85
2019-04-16T18:25:10.630Z,20.34
2019-04-16T18:26:10.615Z,19.65
2019-04-16T18:27:10.612Z,17.60
2019-04-16T18:28:10.614Z,17.60
2019-04-16T18:29:10.671Z,19.16
2019-04-16T18:30:10.591Z,19.65
2019-04-16T18:31:10.714Z,19.16
2019-04-16T18:32:11.945Z,19.46
2019-04-16T18:33:10.644Z,17.70
2019-04-16T18:34:10.561Z,19.56
2019-04-16T18:35:10.547Z,19.36
2019-04-16T18:36:10.612Z,19.56
2019-04-16T18:37:10.519Z,19.65
2019-04-16T18:38:10.528Z,21.22
2019-04-16T18:39:10.906Z,17.70
2019-04-16T18:40:10.510Z,19.65
2019-04-16T18:41:10.628Z,19.26
2019-04-16T18:42:10.450Z,18.87
2019-04-16T18:43:10.501Z,18.68
2019-04-16T18:44:12.758Z,19.16
2019-04-16T18:45:10.414Z,21.12
2019-04-16T18:46:10.530Z,19.26
2019-04-16T18:47:11.037Z,17.50
2019-04-16T18:48:13.839Z,17.50
2019-04-16T18:49:10.382Z,19.07
2019-04-16T18:50:10.384Z,20.92
2019-04-16T18:51:10.371Z,19.16
2019-04-16T18:52:10.647Z,18.97
2019-04-16T18:53:12.165Z,19.07
2019-04-16T18:54:14.928Z,18.97
2019-04-16T18:55:10.335Z,17.21
2019-04-16T18:56:11.012Z,17.01
2019-04-16T18:57:10.369Z,19.07
2019-04-16T18:58:10.323Z,19.75
2019-04-16T18:59:10.252Z,19.07
2019-04-16T19:00:10.231Z,19.56
2019-04-16T19:01:10.231Z,18.87
2019-04-16T19:02:10.241Z,17.21
2019-04-16T19:03:14.753Z,18.87
2019-04-16T19:04:11.754Z,17.11
2019-04-16T19:05:10.884Z,20.73
2019-04-16T19:06:10.561Z,18.97
2019-04-16T19:07:10.254Z,17.01
2019-04-16T19:08:10.182Z,17.89
2019-04-16T19:09:10.139Z,18.68
2019-04-16T19:10:10.155Z,18.68
2019-04-16T19:11:10.140Z,18.68
2019-04-16T19:12:10.133Z,18.68
2019-04-16T19:13:11.700Z,19.07
2019-04-16T19:14:13.040Z,17.01
2019-04-16T19:15:10.081Z,18.77
2019-04-16T19:16:10.111Z,18.68
2019-04-16T19:17:10.070Z,18.09
2019-04-16T19:18:19.006Z,20.73
2019-04-16T19:19:11.039Z,18.09
2019-04-16T19:20:10.019Z,18.58
2019-04-16T19:21:10.006Z,18.58
2019-04-16T19:22:10.021Z,18.87
2019-04-16T19:23:09.993Z,20.24
2019-04-16T19:24:09.999Z,16.72
2019-04-16T19:25:10.038Z,18.68
2019-04-16T19:26:09.965Z,17.80
2019-04-16T19:27:09.946Z,18.48
2019-04-16T19:28:09.926Z,18.38
2019-04-16T19:29:14.505Z,18.68
2019-04-16T19:30:10.693Z,16.43
2019-04-16T19:31:25.139Z,16.72
2019-04-16T19:32:09.973Z,18.58
2019-04-16T19:33:10.456Z,18.38
2019-04-16T19:34:10.671Z,18.58
2019-04-16T19:35:14.432Z,18.38
2019-04-16T19:36:11.335Z,17.40
2019-04-16T19:37:09.977Z,19.75
2019-04-16T19:38:09.933Z,18.38
2019-04-16T19:39:13.836Z,18.38
2019-04-16T19:40:10.928Z,18.38
2019-04-16T19:41:10.167Z,17.01
2019-04-16T19:42:11.385Z,20.44
2019-04-16T19:43:09.990Z,18.38
2019-04-16T19:44:10.039Z,16.62
2019-04-16T19:45:12.126Z,19.16
2019-04-16T19:46:15.382Z,16.43
2019-04-16T19:47:10.781Z,18.68
2019-04-16T19:48:09.726Z,18.38
2019-04-16T19:49:09.718Z,20.34
2019-04-16T19:50:09.745Z,18.28
2019-04-16T19:51:09.682Z,18.48
2019-04-16T19:52:09.688Z,16.62
2019-04-16T19:53:13.771Z,17.40
2019-04-16T19:54:10.648Z,16.72
2019-04-16T19:55:12.253Z,18.28
2019-04-16T19:56:09.630Z,17.21
2019-04-16T19:57:09.737Z,18.38
2019-04-16T19:58:09.727Z,19.16
2019-04-16T19:59:09.599Z,18.38
2019-04-16T20:00:09.577Z,18.28
2019-04-16T20:01:11.999Z,18.28
2019-04-16T20:02:09.563Z,18.48
2019-04-16T20:03:09.765Z,19.56
2019-04-16T20:04:10.850Z,18.77
2019-04-16T20:05:09.519Z,16.62
2019-04-16T20:06:09.523Z,18.19
2019-04-16T20:07:09.514Z,16.72
2019-04-16T20:08:09.524Z,18.19
2019-04-16T20:09:09.698Z,18.09
2019-04-16T20:10:09.517Z,18.87
2019-04-16T20:11:09.461Z,20.04
2019-04-16T20:12:09.448Z,19.95
2019-04-16T20:13:09.431Z,18.48
2019-04-16T20:14:09.637Z,18.38
2019-04-16T20:15:09.851Z,17.50
2019-04-16T20:16:09.418Z,17.01
2019-04-16T20:17:09.409Z,18.19
2019-04-16T20:18:09.397Z,18.09
2019-04-16T20:19:09.396Z,19.36
2019-04-16T20:20:09.372Z,17.60
2019-04-16T20:21:09.368Z,18.19
2019-04-16T20:22:09.351Z,18.09
2019-04-16T20:23:09.659Z,18.28
2019-04-16T20:24:09.348Z,18.28
2019-04-16T20:25:09.309Z,17.50
2019-04-16T20:26:09.332Z,19.95
2019-04-16T20:27:09.291Z,17.99
2019-04-16T20:28:12.687Z,18.09
2019-04-16T20:29:10.297Z,17.99
2019-04-16T20:30:09.272Z,16.33
2019-04-16T20:31:09.246Z,17.60
2019-04-16T20:32:09.255Z,17.99
2019-04-16T20:33:09.512Z,16.13
2019-04-16T20:34:09.311Z,18.48
2019-04-16T20:35:09.553Z,19.36
2019-04-16T20:36:09.410Z,17.40
2019-04-16T20:37:09.429Z,17.70
2019-04-16T20:38:09.172Z,18.09
2019-04-16T20:39:09.320Z,15.94
2019-04-16T20:40:10.839Z,17.80
2019-04-16T20:41:09.215Z,17.70
2019-04-16T20:42:09.206Z,17.89
2019-04-16T20:43:09.128Z,17.89
2019-04-16T20:44:09.635Z,17.70
2019-04-16T20:45:09.137Z,17.80
2019-04-16T20:46:09.087Z,15.94
2019-04-16T20:47:09.094Z,17.60
2019-04-16T20:48:12.398Z,16.04
2019-04-16T20:49:10.739Z,17.80
2019-04-16T20:50:09.045Z,16.92
2019-04-16T20:51:09.051Z,17.40
2019-04-16T20:52:09.028Z,19.56
2019-04-16T20:53:09.274Z,17.60
2019-04-16T20:54:12.225Z,17.80
2019-04-16T20:55:08.996Z,16.43
2019-04-16T20:56:10.707Z,17.70
2019-04-16T20:57:09.000Z,17.60
2019-04-16T20:58:08.950Z,15.74
2019-04-16T20:59:08.966Z,16.33
2019-04-16T21:00:10.899Z,15.45
2019-04-16T21:01:08.912Z,16.92
2019-04-16T21:02:08.917Z,17.60
2019-04-16T21:03:21.334Z,18.68
2019-04-16T21:04:09.924Z,17.31
2019-04-16T21:05:21.531Z,15.74
2019-04-16T21:06:09.902Z,17.21
2019-04-16T21:07:14.318Z,17.31
2019-04-16T21:08:09.881Z,17.31
2019-04-16T21:09:08.849Z,16.62
2019-04-16T21:10:08.859Z,17.70
2019-04-16T21:11:09.583Z,17.40
2019-04-16T21:12:12.885Z,15.65
2019-04-16T21:13:08.777Z,18.87
2019-04-16T21:14:08.789Z,17.11
2019-04-16T21:15:08.770Z,16.23
2019-04-16T21:16:08.788Z,17.80
2019-04-16T21:17:08.755Z,17.31
2019-04-16T21:18:11.923Z,17.01
2019-04-16T21:19:22.491Z,17.50
2019-04-16T21:20:09.780Z,17.31
2019-04-16T21:21:08.729Z,18.38
2019-04-16T21:22:08.699Z,19.36
2019-04-16T21:23:08.681Z,17.21
2019-04-16T21:24:09.216Z,17.40
2019-04-16T21:25:12.996Z,19.16
2019-04-16T21:26:09.677Z,17.21
2019-04-16T21:27:10.586Z,17.11
2019-04-16T21:28:08.638Z,17.11
2019-04-16T21:29:08.627Z,15.35
2019-04-16T21:30:12.773Z,17.11
2019-04-16T21:31:08.596Z,17.40
2019-04-16T21:32:10.626Z,17.31